createdAt,value
2019-03-19T00:15:56.797Z,9.31
2019-03-19T00:36:06.134Z,9.60
2019-03-19T00:56:15.708Z,10.41
2019-03-19T01:16:25.120Z,11.44
2019-03-19T01:36:36.759Z,13.30
2019-03-19T01:56:38.440Z,12.12
2019-03-19T02:16:40.119Z,12.53
2019-03-19T02:36:39.487Z,11.99
2019-03-19T02:56:51.147Z,14.13
2019-03-19T03:16:50.593Z,12.09
2019-03-19T03:37:02.205Z,13.90
2019-03-19T03:57:02.919Z,11.99
2019-03-19T04:17:10.940Z,15.55
2019-03-19T04:37:20.299Z,12.43
2019-03-19T04:57:29.736Z,11.52
2019-03-19T05:17:39.141Z,9.79
2019-03-19T05:37:48.637Z,9.61
2019-03-19T05:57:58.598Z,8.39
2019-03-19T06:18:08.006Z,8.20
2019-03-19T06:38:17.328Z,8.57
2019-03-19T06:58:29.213Z,9.70
2019-03-19T07:18:33.898Z,9.50
2019-03-19T07:38:33.538Z,8.83
2019-03-19T07:58:45.586Z,6.83
2019-03-19T08:18:50.251Z,6.91
2019-03-19T08:38:59.570Z,6.33
2019-03-19T08:59:09.178Z,6.21
2019-03-19T09:19:20.829Z,4.31
2019-03-19T09:39:20.174Z,4.75
2019-03-19T09:59:29.620Z,3.89
2019-03-19T10:19:39.109Z,3.72
2019-03-19T10:39:48.715Z,3.27
2019-03-19T10:59:58.158Z,3.18
2019-03-19T11:20:07.730Z,2.92
2019-03-19T11:40:17.121Z,2.37
2019-03-19T12:00:28.719Z,2.66
2019-03-19T12:20:28.160Z,2.45
2019-03-19T12:40:37.673Z,2.15
2019-03-19T13:00:47.167Z,2.53
2019-03-19T13:20:56.781Z,5.11
2019-03-19T13:41:06.259Z,2.82
2019-03-19T14:01:17.867Z,2.31
2019-03-19T14:21:17.414Z,1.70
2019-03-19T14:41:26.892Z,1.51
2019-03-19T15:01:36.471Z,1.47
2019-03-19T15:21:45.850Z,1.95
2019-03-19T15:41:57.728Z,2.34
2019-03-19T16:01:57.122Z,2.20
2019-03-19T16:22:06.773Z,2.22
2019-03-19T16:42:16.300Z,2.10
2019-03-19T17:02:27.717Z,2.20
2019-03-19T17:22:27.670Z,2.28
2019-03-19T17:42:37.275Z,2.15
2019-03-19T18:03:05.635Z,2.39
2019-03-19T18:22:55.170Z,2.58
2019-03-19T18:43:04.753Z,2.65
2019-03-19T19:03:14.226Z,2.24
2019-03-19T19:23:23.816Z,1.75
2019-03-19T19:43:35.585Z,1.84
2019-03-19T20:03:35.135Z,1.64
2019-03-19T20:23:49.032Z,1.28
2019-03-19T20:43:48.182Z,1.04
2019-03-19T21:04:11.477Z,0.96
2019-03-19T21:24:00.861Z,1.01
2019-03-19T21:44:10.192Z,0.95
2019-03-19T22:04:19.606Z,0.97
2019-03-19T22:24:29.185Z,1.04
2019-03-19T22:44:38.552Z,1.14
2019-03-19T23:04:47.909Z,1.27
2019-03-19T23:24:57.359Z,1.21
2019-03-19T23:45:06.771Z,1.16
